createdAt,value
2019-05-21T10:19:47.043Z,97865.69
2019-05-21T10:22:22.485Z,97864.39
2019-05-21T10:24:54.253Z,97874.81
2019-05-21T10:27:25.868Z,97871.56
2019-05-21T10:29:57.477Z,97868.00
2019-05-21T10:32:31.372Z,97873.63
2019-05-21T10:35:04.243Z,97873.66
2019-05-21T10:37:36.109Z,97873.66
2019-05-21T10:40:09.306Z,97869.66
2019-05-21T10:42:40.960Z,97877.42
2019-05-21T10:45:14.545Z,97879.52
2019-05-21T10:47:48.997Z,97870.91
2019-05-21T10:50:20.424Z,97871.92
2019-05-21T10:52:52.077Z,97876.89
2019-05-21T10:55:23.387Z,97874.20
2019-05-21T10:57:55.963Z,97877.81
2019-05-21T11:00:28.482Z,97869.90
2019-05-21T11:03:11.825Z,97880.69
2019-05-21T11:06:07.389Z,97879.16
2019-05-21T11:08:28.453Z,97883.62
2019-05-21T11:10:59.679Z,97882.59
2019-05-21T11:13:34.007Z,97886.59
2019-05-21T11:16:05.399Z,97896.81
2019-05-21T11:18:40.579Z,97903.80
2019-05-21T11:21:12.040Z,97907.59
2019-05-21T11:23:45.815Z,97911.85
2019-05-21T11:26:20.965Z,97923.53
2019-05-21T11:28:54.014Z,97918.10
2019-05-21T11:31:29.879Z,97917.18
2019-05-21T11:34:04.027Z,97926.98
2019-05-21T11:36:35.291Z,97920.59
2019-05-21T11:39:08.056Z,97928.31
2019-05-21T11:41:39.135Z,97922.68
2019-05-21T11:44:12.227Z,97922.96
2019-05-21T11:46:44.395Z,97913.59
2019-05-21T11:49:18.408Z,97910.85
2019-05-21T11:51:50.034Z,97917.12
2019-05-21T11:54:21.530Z,97919.84
2019-05-21T11:56:54.380Z,97934.49
2019-05-21T11:59:27.372Z,97927.19
2019-05-21T12:02:00.614Z,97931.61
2019-05-21T12:04:33.423Z,97929.77
2019-05-21T12:07:04.775Z,97921.12
2019-05-21T12:09:37.778Z,97932.52
2019-05-21T12:12:15.084Z,97926.09
2019-05-21T12:14:48.912Z,97926.64
2019-05-21T12:17:24.031Z,97926.63
2019-05-21T12:19:57.352Z,97921.59
2019-05-21T12:22:29.181Z,97914.96
2019-05-21T12:25:02.235Z,97925.57
2019-05-21T12:27:33.590Z,97921.12
2019-05-21T12:30:07.709Z,97922.73
2019-05-21T12:32:42.421Z,97921.50
2019-05-21T12:35:13.866Z,97925.16
2019-05-21T12:37:46.669Z,97926.83
2019-05-21T12:40:21.375Z,97924.95
2019-05-21T12:43:01.417Z,97928.25
2019-05-21T12:45:33.799Z,97930.30
2019-05-21T12:48:07.504Z,97928.90
2019-05-21T12:50:38.784Z,97928.50
2019-05-21T12:53:10.304Z,97930.56
2019-05-21T12:55:41.862Z,97933.27
2019-05-21T12:58:13.281Z,97942.55
2019-05-21T13:00:44.735Z,97934.05
2019-05-21T13:03:19.859Z,97930.45
2019-05-21T13:05:51.811Z,97928.25
2019-05-21T13:08:23.102Z,97923.73
2019-05-21T13:10:55.564Z,97927.45
2019-05-21T13:13:29.791Z,97924.95
2019-05-21T13:16:02.491Z,97919.83
2019-05-21T13:18:33.744Z,97910.22
2019-05-21T13:21:08.444Z,97918.38
2019-05-21T13:23:40.842Z,97909.94
2019-05-21T13:26:12.606Z,97907.50
2019-05-21T13:28:44.379Z,97900.55
2019-05-21T13:31:18.448Z,97912.42
2019-05-21T13:33:51.439Z,97925.20
2019-05-21T13:36:22.877Z,97919.11
2019-05-21T13:38:54.448Z,97923.95
2019-05-21T13:41:27.854Z,97926.84
2019-05-21T13:44:00.102Z,97928.38
2019-05-21T13:46:35.454Z,97923.53
2019-05-21T13:49:05.170Z,97935.63
2019-05-21T13:51:37.106Z,97933.08
2019-05-21T13:54:10.072Z,97933.92
2019-05-21T13:56:41.668Z,97929.56
2019-05-21T13:59:13.196Z,97924.67
2019-05-21T14:01:44.973Z,97924.16
2019-05-21T14:04:21.237Z,97927.31
2019-05-21T14:06:52.245Z,97921.27
2019-05-21T14:09:27.493Z,97923.07
2019-05-21T14:11:59.080Z,97922.48
2019-05-21T14:14:30.432Z,97920.58
2019-05-21T14:17:01.769Z,97919.49
2019-05-21T14:19:35.580Z,97921.04
2019-05-21T14:22:07.261Z,97918.23
2019-05-21T14:24:44.630Z,97921.42
2019-05-21T14:27:16.065Z,97924.45
2019-05-21T14:29:50.262Z,97916.58
2019-05-21T14:32:26.463Z,97920.37
2019-05-21T14:35:01.469Z,97913.27
2019-05-21T14:37:31.080Z,97912.45
2019-05-21T14:40:10.109Z,97907.50
2019-05-21T14:42:56.935Z,97918.25
2019-05-21T14:45:17.315Z,97928.70
2019-05-21T14:47:48.994Z,97927.55
2019-05-21T14:50:22.258Z,97920.87
2019-05-21T14:52:55.970Z,97919.27
2019-05-21T14:55:27.421Z,97922.07
2019-05-21T14:58:00.809Z,97921.62
2019-05-21T15:00:33.712Z,97916.37
2019-05-21T15:03:06.275Z,97917.34
2019-05-21T15:05:39.174Z,97921.63
2019-05-21T15:08:12.145Z,97919.37
2019-05-21T15:10:48.411Z,97912.56
2019-05-21T15:13:18.866Z,97909.07
2019-05-21T15:15:51.510Z,97908.97
2019-05-21T15:18:28.811Z,97905.93
2019-05-21T15:21:18.885Z,97912.11
2019-05-21T15:23:51.389Z,97903.31
2019-05-21T15:26:25.800Z,97902.81
2019-05-21T15:29:06.286Z,97900.66
2019-05-21T15:31:53.985Z,97900.38
2019-05-21T15:34:31.387Z,97897.78
2019-05-21T15:37:10.550Z,97898.23
2019-05-21T15:39:43.175Z,97890.28
2019-05-21T15:42:16.407Z,97889.70
2019-05-21T15:44:47.820Z,97881.16
2019-05-21T15:47:21.047Z,97889.27
2019-05-21T15:49:56.684Z,97894.92
2019-05-21T15:52:30.982Z,97891.21
2019-05-21T15:55:07.037Z,97888.95
2019-05-21T15:57:42.483Z,97886.67
2019-05-21T16:00:13.959Z,97891.98
2019-05-21T16:02:46.747Z,97887.71
2019-05-21T16:05:17.982Z,97894.86
2019-05-21T16:07:50.426Z,97889.63
2019-05-21T16:10:31.397Z,97887.48
2019-05-21T16:13:04.406Z,97885.05
2019-05-21T16:15:35.742Z,97887.16
2019-05-21T16:18:07.359Z,97885.14
2019-05-21T16:20:43.348Z,97888.69
2019-05-21T16:23:15.117Z,97880.87
2019-05-21T16:25:51.473Z,97887.17
2019-05-21T16:28:27.549Z,97893.84
2019-05-21T16:31:03.914Z,97894.27
2019-05-21T16:33:46.378Z,97899.28
